Time;durP1;ratioP1;P1;durP2;ratioP2;P2;SDS_P1;SDS_P2;PMS_P1;PMS_P2;Temp;Humidity;BMP_temperature;BMP_pressure;BME280_temperature;BME280_humidity;BME280_pressure;Samples;Min_cycle;Max_cycle;Signal;HPM_P1;HPM_P2
2022/04/13 00:00:28;;;;;;;;;11.50;11.50;;;25.98;98133.16;;;;117787;1187;25110;-43
2022/04/13 00:03:03;;;;;;;;;17.00;14.00;;;26.00;98136.64;;;;117822;1188;24924;-47
2022/04/13 00:05:36;;;;;;;;;14.00;12.00;;;25.95;98140.09;;;;117865;1187;25576;-43
2022/04/13 00:08:06;;;;;;;;;15.33;13.67;;;25.93;98140.27;;;;117849;1187;24895;-46
2022/04/13 00:10:38;;;;;;;;;17.00;14.00;;;25.94;98132.67;;;;117996;1187;25553;-43
2022/04/13 00:13:10;;;;;;;;;18.50;16.50;;;25.97;98136.41;;;;118106;1186;25058;-50
2022/04/13 00:15:42;;;;;;;;;17.67;17.67;;;26.02;98133.00;;;;117858;1188;25379;-42
2022/04/13 00:18:16;;;;;;;;;15.33;13.67;;;25.95;98131.51;;;;117938;1186;24847;-45
2022/04/13 00:20:49;;;;;;;;;16.25;14.25;;;25.96;98132.62;;;;117767;1187;24797;-41
2022/04/13 00:23:22;;;;;;;;;14.67;12.67;;;25.92;98130.98;;;;117786;1186;25580;-45
2022/04/13 00:25:55;;;;;;;;;16.00;14.67;;;25.89;98130.07;;;;117910;1188;24879;-43
2022/04/13 00:28:27;;;;;;;;;17.67;16.00;;;25.93;98135.38;;;;117736;1188;26039;-44
2022/04/13 00:30:57;;;;;;;;;19.67;16.67;;;25.91;98135.34;;;;117794;1186;25176;-41
2022/04/13 00:33:32;;;;;;;;;17.00;13.50;;;25.86;98135.73;;;;117540;1189;25059;-43
2022/04/13 00:36:05;;;;;;;;;14.00;13.00;;;25.92;98136.96;;;;117787;1186;25769;-44
2022/04/13 00:38:40;;;;;;;;;16.25;15.50;;;25.89;98137.77;;;;117929;1187;25660;-43
2022/04/13 00:41:09;;;;;;;;;13.67;12.33;;;25.90;98136.48;;;;117839;1187;25111;-40
2022/04/13 00:43:42;;;;;;;;;14.67;13.00;;;25.86;98136.81;;;;117789;1188;25439;-44
2022/04/13 00:46:12;;;;;;;;;15.33;14.33;;;25.83;98137.59;;;;117865;1186;25611;-43
2022/04/13 00:48:46;;;;;;;;;14.67;12.67;;;25.83;98138.86;;;;117848;1187;25315;-39
2022/04/13 00:51:19;;;;;;;;;16.50;14.00;;;25.81;98138.30;;;;117850;1186;24914;-43
2022/04/13 00:53:54;;;;;;;;;14.00;12.00;;;25.80;98135.98;;;;117877;1188;24828;-39
2022/04/13 00:56:29;;;;;;;;;13.25;12.50;;;25.79;98137.52;;;;117996;1187;25714;-42
2022/04/13 00:59:05;;;;;;;;;13.25;12.00;;;25.84;98137.20;;;;117826;1188;24791;-44
2022/04/13 01:01:39;;;;;;;;;15.00;12.50;;;25.80;98140.16;;;;117863;1187;25109;-47
2022/04/13 01:04:11;;;;;;;;;15.33;14.33;;;25.75;98138.72;;;;117876;1187;26269;-43
2022/04/13 01:06:41;;;;;;;;;16.00;13.75;;;25.77;98135.95;;;;117389;1189;25578;-47
2022/04/13 01:09:17;;;;;;;;;14.00;13.33;;;25.73;98134.55;;;;117806;1187;25723;-46
2022/04/13 01:11:49;;;;;;;;;10.00;9.33;;;25.74;98131.20;;;;117874;1186;24812;-41
2022/04/13 01:14:18;;;;;;;;;11.67;10.67;;;25.75;98126.77;;;;117841;1188;25183;-43
2022/04/13 01:16:49;;;;;;;;;14.00;13.50;;;25.73;98127.84;;;;117571;1189;25339;-38
2022/04/13 01:19:23;;;;;;;;;15.50;14.75;;;25.75;98132.12;;;;117828;1188;25647;-47
2022/04/13 01:22:09;;;;;;;;;12.25;11.50;;;25.71;98129.60;;;;117797;1188;25235;-43
2022/04/13 01:24:41;;;;;;;;;13.50;12.50;;;25.75;98128.83;;;;117598;1188;26304;-41
2022/04/13 01:27:11;;;;;;;;;14.00;12.00;;;25.80;98128.76;;;;117314;1190;26150;-44
2022/04/13 01:29:48;;;;;;;;;16.50;14.00;;;25.72;98128.66;;;;117960;1188;25310;-44
2022/04/13 01:32:20;;;;;;;;;12.33;12.33;;;25.73;98130.36;;;;117914;1187;25554;-43
2022/04/13 01:34:53;;;;;;;;;12.67;12.33;;;25.76;98129.70;;;;117900;1187;26385;-43
2022/04/13 01:37:24;;;;;;;;;11.00;9.50;;;25.70;98132.43;;;;117765;1187;25599;-43
2022/04/13 01:39:52;;;;;;;;;15.00;13.25;;;25.68;98130.10;;;;117570;1187;24993;-40
2022/04/13 01:42:26;;;;;;;;;15.00;12.75;;;25.68;98128.58;;;;117979;1187;26290;-43
2022/04/13 01:45:00;;;;;;;;;16.00;12.67;;;25.70;98129.73;;;;117402;1188;24851;-38
2022/04/13 01:47:30;;;;;;;;;14.67;13.33;;;25.67;98129.59;;;;117948;1188;25252;-37
2022/04/13 01:50:00;;;;;;;;;13.00;10.00;;;25.68;98133.66;;;;117824;1186;25246;-44
2022/04/13 01:52:34;;;;;;;;;13.67;13.67;;;25.65;98133.50;;;;117933;1188;25435;-41
2022/04/13 01:55:09;;;;;;;;;13.75;13.00;;;25.64;98134.27;;;;117787;1187;25364;-46
2022/04/13 01:57:43;;;;;;;;;19.00;13.00;;;25.62;98137.85;;;;117338;1190;25074;-41
2022/04/13 02:00:14;;;;;;;;;13.67;12.33;;;25.61;98139.39;;;;117946;1188;24772;-44
2022/04/13 02:02:46;;;;;;;;;12.50;11.75;;;25.65;98143.13;;;;117877;1187;25780;-43
2022/04/13 02:05:15;;;;;;;;;12.25;12.00;;;25.61;98147.54;;;;117485;1188;26098;-44
2022/04/13 02:07:43;;;;;;;;;14.50;12.50;;;25.63;98146.09;;;;117863;1188;25208;-44
2022/04/13 02:10:11;;;;;;;;;10.00;10.00;;;25.56;98147.63;;;;117432;1188;25101;-41
2022/04/13 02:12:44;;;;;;;;;13.75;10.75;;;25.51;98148.73;;;;117835;1187;24767;-40
2022/04/13 02:15:15;;;;;;;;;13.00;13.00;;;25.55;98145.80;;;;118019;1187;25399;-43
2022/04/13 02:17:45;;;;;;;;;10.75;10.75;;;25.63;98146.45;;;;117820;1188;25716;-43
2022/04/13 02:20:19;;;;;;;;;14.50;11.25;;;25.56;98143.98;;;;117884;1187;25323;-45
2022/04/13 02:22:51;;;;;;;;;12.75;11.25;;;25.56;98143.59;;;;117869;1188;26376;-41
2022/04/13 02:25:23;;;;;;;;;9.67;9.00;;;25.59;98147.78;;;;117785;1188;25163;-43
2022/04/13 02:27:56;;;;;;;;;9.00;9.00;;;25.58;98146.63;;;;117776;1186;26256;-41
2022/04/13 02:30:27;;;;;;;;;9.00;9.00;;;25.53;98147.77;;;;117809;1187;25327;-41
2022/04/13 02:33:02;;;;;;;;;13.50;11.50;;;25.51;98153.71;;;;117614;1188;24969;-42
2022/04/13 02:35:34;;;;;;;;;10.00;9.00;;;25.59;98158.14;;;;117793;1187;25322;-42
2022/04/13 02:38:06;;;;;;;;;13.50;11.00;;;25.54;98154.84;;;;117857;1187;24975;-45
2022/04/13 02:40:35;;;;;;;;;10.67;9.00;;;25.52;98157.77;;;;117940;1186;25438;-38
2022/04/13 02:43:06;;;;;;;;;13.00;11.33;;;25.54;98158.57;;;;117887;1187;25286;-44
2022/04/13 02:45:39;;;;;;;;;12.67;11.00;;;25.52;98159.56;;;;117913;1187;25896;-46
2022/04/13 02:48:08;;;;;;;;;10.00;10.00;;;25.54;98158.77;;;;117817;1188;24765;-48
2022/04/13 02:50:39;;;;;;;;;13.00;10.00;;;25.49;98160.09;;;;117797;1187;25647;-42
2022/04/13 02:53:07;;;;;;;;;12.00;10.00;;;25.47;98165.69;;;;117833;1186;25588;-44
2022/04/13 02:55:37;;;;;;;;;11.00;9.50;;;25.43;98164.40;;;;117497;1188;25162;-45
2022/04/13 02:58:08;;;;;;;;;10.25;10.00;;;25.47;98162.20;;;;117464;1188;25051;-38
2022/04/13 03:00:37;;;;;;;;;10.50;10.00;;;25.44;98163.91;;;;117849;1188;24941;-42
2022/04/13 03:03:10;;;;;;;;;14.00;9.67;;;25.44;98167.79;;;;117777;1188;25334;-41
2022/04/13 03:05:44;;;;;;;;;13.75;10.75;;;25.44;98170.58;;;;118055;1187;24896;-43
2022/04/13 03:08:14;;;;;;;;;11.00;10.00;;;25.51;98169.64;;;;117770;1188;24949;-39
2022/04/13 03:10:44;;;;;;;;;6.50;6.50;;;25.48;98169.00;;;;117816;1186;24828;-39
2022/04/13 03:13:15;;;;;;;;;10.50;10.50;;;25.43;98165.65;;;;117505;1187;25769;-40
2022/04/13 03:15:45;;;;;;;;;12.00;9.00;;;25.43;98163.58;;;;117437;1188;24892;-42
2022/04/13 03:18:18;;;;;;;;;8.67;8.67;;;25.42;98164.58;;;;117952;1186;25291;-46
2022/04/13 03:20:51;;;;;;;;;8.50;8.50;;;25.46;98162.05;;;;117300;1190;25677;-46
2022/04/13 03:23:22;;;;;;;;;7.00;7.00;;;25.43;98158.60;;;;117911;1187;24907;-38
2022/04/13 03:25:52;;;;;;;;;11.50;10.25;;;25.43;98162.29;;;;117493;1189;25608;-41
2022/04/13 03:28:25;;;;;;;;;9.67;8.00;;;25.45;98164.34;;;;118077;1186;25700;-37
2022/04/13 03:30:58;;;;;;;;;7.67;5.33;;;25.52;98166.74;;;;117758;1186;25589;-41
2022/04/13 03:33:26;;;;;;;;;9.50;9.50;;;25.50;98173.22;;;;117810;1186;25012;-42
2022/04/13 03:35:56;;;;;;;;;9.00;9.00;;;25.41;98171.13;;;;117468;1189;25413;-41
2022/04/13 03:38:28;;;;;;;;;11.33;11.33;;;25.45;98172.41;;;;117877;1188;25541;-39
2022/04/13 03:40:57;;;;;;;;;8.00;8.00;;;25.46;98177.69;;;;117982;1188;25671;-42
2022/04/13 03:43:27;;;;;;;;;11.33;9.00;;;25.51;98178.45;;;;118065;1187;24746;-45
2022/04/13 03:45:58;;;;;;;;;11.67;10.67;;;25.55;98178.90;;;;118056;1186;24878;-41
2022/04/13 03:48:34;;;;;;;;;11.33;11.00;;;25.62;98183.46;;;;118361;1187;25872;-43
2022/04/13 03:51:05;;;;;;;;;8.25;7.00;;;25.75;98188.45;;;;117325;1189;26058;-44
2022/04/13 03:53:40;;;;;;;;;12.67;11.67;;;25.66;98185.88;;;;117912;1186;24779;-45
2022/04/13 03:56:12;;;;;;;;;13.00;10.25;;;25.63;98188.63;;;;117992;1186;24774;-40
2022/04/13 03:58:43;;;;;;;;;13.75;12.75;;;25.61;98189.80;;;;117775;1188;25405;-40
2022/04/13 04:01:14;;;;;;;;;15.50;12.50;;;25.53;98191.06;;;;117929;1187;24752;-44
2022/04/13 04:03:49;;;;;;;;;12.33;11.00;;;25.51;98192.32;;;;117867;1187;24999;-46
2022/04/13 04:06:20;;;;;;;;;13.33;11.67;;;25.51;98194.90;;;;117898;1187;25195;-40
2022/04/13 04:08:51;;;;;;;;;17.00;13.00;;;25.49;98195.19;;;;118035;1187;25126;-43
2022/04/13 04:11:19;;;;;;;;;13.67;12.33;;;25.55;98199.92;;;;117890;1186;25218;-40
2022/04/13 04:13:47;;;;;;;;;14.75;12.25;;;25.50;98200.92;;;;117947;1188;25444;-44
2022/04/13 04:16:16;;;;;;;;;16.00;12.67;;;25.47;98204.58;;;;117838;1188;25342;-40
2022/04/13 04:18:50;;;;;;;;;14.33;13.67;;;25.43;98204.86;;;;117961;1188;25255;-44
2022/04/13 04:21:23;;;;;;;;;16.50;12.50;;;25.48;98205.05;;;;117829;1186;24830;-39
2022/04/13 04:23:51;;;;;;;;;15.00;13.00;;;25.47;98205.77;;;;117874;1187;24724;-43
2022/04/13 04:26:22;;;;;;;;;14.75;11.75;;;25.48;98206.13;;;;117543;1190;25104;-40
2022/04/13 04:28:51;;;;;;;;;14.00;11.00;;;25.52;98204.80;;;;117828;1187;24705;-43
2022/04/13 04:31:49;;;;;;;;;15.33;12.00;;;25.52;98206.17;;;;117848;1188;25051;-44
2022/04/13 04:34:14;;;;;;;;;14.33;14.33;;;25.63;98209.35;;;;118000;1186;25076;-42
2022/04/13 04:36:46;;;;;;;;;17.67;13.67;;;25.61;98215.19;;;;117873;1186;26100;-41
2022/04/13 04:39:14;;;;;;;;;22.00;17.67;;;25.47;98215.07;;;;117864;1188;25584;-45
2022/04/13 04:41:44;;;;;;;;;22.00;19.00;;;25.35;98217.27;;;;117790;1187;25308;-39
2022/04/13 04:44:14;;;;;;;;;16.67;15.33;;;25.16;98221.79;;;;117884;1188;25444;-40
2022/04/13 04:46:47;;;;;;;;;17.00;17.00;;;25.03;98221.80;;;;117918;1188;25457;-42
2022/04/13 04:49:15;;;;;;;;;16.33;14.67;;;24.90;98222.15;;;;117797;1186;25297;-45
2022/04/13 04:51:45;;;;;;;;;17.67;16.00;;;24.74;98220.48;;;;117919;1186;25341;-38
2022/04/13 04:54:17;;;;;;;;;12.00;12.00;;;24.62;98223.04;;;;117797;1188;24966;-41
2022/04/13 04:56:47;;;;;;;;;19.33;16.33;;;24.51;98223.93;;;;117813;1186;25202;-39
2022/04/13 04:59:15;;;;;;;;;17.67;14.33;;;24.34;98231.65;;;;117841;1187;25028;-39
2022/04/13 05:01:44;;;;;;;;;15.67;14.67;;;24.20;98227.16;;;;117874;1188;25104;-44
2022/04/13 05:04:18;;;;;;;;;19.67;17.00;;;24.01;98229.02;;;;117955;1188;25122;-44
2022/04/13 05:06:47;;;;;;;;;18.67;17.33;;;23.88;98235.40;;;;117837;1188;25181;-43
2022/04/13 05:09:17;;;;;;;;;27.33;20.00;;;23.79;98240.79;;;;117673;1188;25865;-42
2022/04/13 05:11:45;;;;;;;;;19.67;18.33;;;23.77;98241.16;;;;118328;1188;25782;-48
2022/04/13 05:14:13;;;;;;;;;20.00;18.00;;;24.02;98238.58;;;;117670;1189;25084;-41
2022/04/13 05:16:41;;;;;;;;;20.33;18.00;;;24.02;98243.44;;;;117662;1189;25780;-47
2022/04/13 05:19:09;;;;;;;;;22.33;19.00;;;23.95;98251.23;;;;117610;1189;25046;-47
2022/04/13 05:21:37;;;;;;;;;24.00;18.33;;;23.87;98255.39;;;;117413;1189;25241;-45
2022/04/13 05:24:05;;;;;;;;;18.33;18.33;;;23.78;98257.48;;;;117604;1190;25073;-41
2022/04/13 05:26:35;;;;;;;;;22.67;19.33;;;23.73;98253.58;;;;117476;1189;24867;-42
2022/04/13 05:29:03;;;;;;;;;19.67;16.67;;;23.71;98255.64;;;;117659;1189;24843;-45
2022/04/13 05:31:33;;;;;;;;;20.00;17.33;;;23.74;98255.14;;;;117547;1189;25631;-44
2022/04/13 05:34:04;;;;;;;;;27.33;24.67;;;23.69;98254.92;;;;117556;1189;25427;-43
2022/04/13 05:36:32;;;;;;;;;34.50;31.50;;;23.67;98256.61;;;;117531;1189;25965;-46
2022/04/13 05:39:00;;;;;;;;;40.00;31.00;;;23.67;98257.52;;;;117454;1189;25648;-43
2022/04/13 05:41:28;;;;;;;;;31.00;29.00;;;23.59;98255.92;;;;117643;1190;25498;-43
2022/04/13 05:43:56;;;;;;;;;31.67;28.33;;;23.62;98257.89;;;;118290;1190;25451;-43
2022/04/13 05:46:24;;;;;;;;;32.67;27.33;;;23.86;98260.27;;;;117581;1188;25008;-40
2022/04/13 05:48:51;;;;;;;;;31.00;24.00;;;23.82;98261.91;;;;117622;1189;25482;-42
2022/04/13 05:51:19;;;;;;;;;27.00;24.00;;;23.71;98261.81;;;;117438;1189;25510;-44
2022/04/13 05:53:47;;;;;;;;;22.33;20.33;;;23.58;98261.23;;;;117714;1189;25351;-41
2022/04/13 05:56:15;;;;;;;;;17.00;16.67;;;23.55;98261.15;;;;118033;1189;25080;-44
2022/04/13 05:58:49;;;;;;;;;10.33;9.00;;;23.67;98260.61;;;;117669;1189;25293;-45
2022/04/13 06:01:18;;;;;;;;;20.33;19.00;;;23.60;98262.77;;;;117578;1189;26406;-45
2022/04/13 06:03:48;;;;;;;;;21.67;17.33;;;23.54;98266.84;;;;117493;1189;25609;-42
2022/04/13 06:06:17;;;;;;;;;21.00;18.33;;;23.43;98269.10;;;;117504;1190;24830;-52
2022/04/13 06:08:46;;;;;;;;;24.50;22.00;;;23.34;98266.15;;;;117533;1189;25037;-43
2022/04/13 06:11:16;;;;;;;;;25.33;22.00;;;23.29;98268.16;;;;117466;1189;25652;-43
2022/04/13 06:13:46;;;;;;;;;19.00;18.50;;;23.31;98267.13;;;;117519;1190;24757;-40
2022/04/13 06:16:18;;;;;;;;;19.00;14.50;;;23.34;98267.29;;;;117498;1190;26331;-48
2022/04/13 06:18:52;;;;;;;;;21.00;19.33;;;23.38;98268.52;;;;117525;1189;25190;-43
2022/04/13 06:21:20;;;;;;;;;17.50;16.00;;;23.45;98268.80;;;;117608;1189;25568;-41
2022/04/13 06:23:56;;;;;;;;;19.00;15.00;;;23.43;98268.06;;;;117512;1188;24712;-41
2022/04/13 06:26:26;;;;;;;;;19.00;17.67;;;23.49;98269.75;;;;117576;1189;25550;-43
2022/04/13 06:28:59;;;;;;;;;17.00;15.00;;;23.58;98273.82;;;;117592;1189;25626;-41
2022/04/13 06:31:27;;;;;;;;;19.00;16.33;;;23.65;98270.40;;;;117475;1189;25507;-40
2022/04/13 06:33:57;;;;;;;;;20.00;16.50;;;23.69;98272.45;;;;117343;1189;26022;-42
2022/04/13 06:36:31;;;;;;;;;20.00;16.00;;;23.72;98274.98;;;;117425;1189;25682;-42
2022/04/13 06:39:01;;;;;;;;;18.33;14.00;;;23.78;98273.23;;;;117423;1189;26428;-41
2022/04/13 06:41:30;;;;;;;;;17.33;16.00;;;23.84;98276.63;;;;117374;1189;25046;-42
2022/04/13 06:44:00;;;;;;;;;13.50;12.50;;;23.89;98277.67;;;;117368;1189;24777;-42
2022/04/13 06:46:28;;;;;;;;;13.33;13.33;;;23.94;98278.02;;;;117458;1190;24950;-40
2022/04/13 06:48:59;;;;;;;;;17.33;14.33;;;24.08;98274.58;;;;117377;1190;25470;-40
2022/04/13 06:51:28;;;;;;;;;18.67;17.67;;;24.11;98274.71;;;;117666;1188;24853;-42
2022/04/13 06:53:56;;;;;;;;;14.00;12.33;;;24.21;98275.89;;;;117436;1189;25305;-40
2022/04/13 06:56:26;;;;;;;;;16.33;11.00;;;24.20;98270.55;;;;117464;1189;25713;-45
2022/04/13 06:58:54;;;;;;;;;17.67;13.00;;;24.25;98266.03;;;;117424;1190;25222;-43
2022/04/13 07:01:22;;;;;;;;;15.33;13.00;;;24.33;98269.05;;;;117447;1189;25409;-45
2022/04/13 07:03:51;;;;;;;;;16.67;15.67;;;24.37;98269.05;;;;117657;1189;25618;-38
2022/04/13 07:06:22;;;;;;;;;16.67;14.67;;;24.45;98266.80;;;;117520;1188;24824;-45
2022/04/13 07:09:13;;;;;;;;;18.67;15.00;;;24.61;98269.54;;;;117355;1189;25284;-48
2022/04/13 07:11:41;;;;;;;;;18.00;16.00;;;24.68;98269.83;;;;117420;1189;25421;-45
2022/04/13 07:14:12;;;;;;;;;19.00;16.00;;;24.73;98270.48;;;;117382;1189;24705;-42
2022/04/13 07:16:40;;;;;;;;;15.00;15.00;;;24.80;98267.48;;;;117401;1189;25306;-42
2022/04/13 07:19:12;;;;;;;;;18.00;16.33;;;24.90;98270.08;;;;117356;1189;25262;-41
2022/04/13 07:21:42;;;;;;;;;14.67;12.33;;;24.92;98271.77;;;;117373;1189;24850;-39
2022/04/13 07:24:27;;;;;;;;;18.50;14.00;;;25.05;98275.91;;;;117384;1189;24941;-35
2022/04/13 07:36:38;;;;;;;;;15.00;14.00;;;26.55;98277.64;;;;106239;1193;943116;-38
2022/04/13 07:39:11;;;;;;;;;15.00;11.00;;;26.68;98274.90;;;;117150;1197;25625;-38
2022/04/13 07:41:39;;;;;;;;;15.00;12.33;;;26.44;98274.80;;;;116766;1197;25133;-41
2022/04/13 07:44:09;;;;;;;;;15.00;11.00;;;26.14;98274.92;;;;116817;1197;25181;-41
2022/04/13 07:46:43;;;;;;;;;12.00;11.00;;;25.94;98277.98;;;;116714;1197;25491;-40
2022/04/13 07:49:15;;;;;;;;;13.00;13.00;;;25.81;98275.58;;;;116816;1197;25391;-42
2022/04/13 07:51:45;;;;;;;;;9.67;8.00;;;25.75;98275.03;;;;116719;1198;24704;-39
2022/04/13 07:54:13;;;;;;;;;14.00;12.00;;;25.66;98275.42;;;;116956;1196;25689;-40
2022/04/13 07:57:03;;;;;;;;;14.33;13.33;;;25.75;98271.30;;;;116745;1197;25219;-39
2022/04/13 07:59:41;;;;;;;;;10.67;9.00;;;25.75;98276.25;;;;116719;1197;25490;-42
2022/04/13 08:02:22;;;;;;;;;14.67;12.00;;;25.68;98273.61;;;;116774;1196;25278;-39
2022/04/13 08:04:58;;;;;;;;;9.25;9.25;;;25.69;98273.52;;;;116699;1198;25088;-38
2022/04/13 08:07:32;;;;;;;;;14.00;10.00;;;25.62;98275.59;;;;116746;1197;25619;-41
2022/04/13 08:10:06;;;;;;;;;13.50;12.00;;;25.55;98277.04;;;;116733;1196;25841;-40
2022/04/13 08:12:40;;;;;;;;;12.00;9.00;;;25.54;98276.91;;;;116773;1197;25486;-42
2022/04/13 08:15:11;;;;;;;;;14.00;8.50;;;25.53;98276.15;;;;116530;1197;25025;-39
2022/04/13 08:17:44;;;;;;;;;11.33;9.67;;;25.55;98275.33;;;;116622;1196;25574;-48
2022/04/13 08:20:15;;;;;;;;;13.75;12.00;;;25.55;98277.11;;;;116767;1196;24967;-48
2022/04/13 08:22:47;;;;;;;;;7.50;7.50;;;25.56;98274.40;;;;116720;1197;25715;-44
2022/04/13 08:25:17;;;;;;;;;13.33;12.00;;;25.55;98273.77;;;;116804;1198;24979;-40
2022/04/13 08:27:45;;;;;;;;;10.67;10.00;;;25.56;98275.41;;;;116759;1197;25532;-37
2022/04/13 08:30:26;;;;;;;;;13.00;9.50;;;25.58;98276.71;;;;116718;1196;24814;-37
2022/04/13 08:32:59;;;;;;;;;12.00;12.00;;;25.60;98272.07;;;;116798;1196;25038;-40
2022/04/13 08:35:31;;;;;;;;;9.50;9.00;;;25.67;98268.45;;;;116694;1196;25306;-37
2022/04/13 08:38:03;;;;;;;;;12.00;10.00;;;25.58;98268.92;;;;116828;1197;25081;-39
2022/04/13 08:40:47;;;;;;;;;7.00;6.00;;;25.62;98270.63;;;;116759;1197;25331;-38
2022/04/13 08:43:28;;;;;;;;;9.00;9.00;;;25.69;98268.23;;;;116681;1196;24764;-38
2022/04/13 08:46:04;;;;;;;;;10.00;10.00;;;25.70;98268.79;;;;116738;1196;25161;-43
2022/04/13 08:48:38;;;;;;;;;12.00;7.50;;;25.69;98261.77;;;;116695;1197;25010;-36
2022/04/13 08:51:09;;;;;;;;;11.25;9.75;;;25.70;98260.13;;;;116846;1197;25079;-40
2022/04/13 08:54:04;;;;;;;;;11.50;10.00;;;25.75;98251.86;;;;116932;1197;25739;-43
2022/04/13 08:56:35;;;;;;;;;12.67;10.33;;;25.85;98251.63;;;;116982;1197;24980;-40
2022/04/13 08:59:21;;;;;;;;;13.00;11.00;;;25.87;98256.72;;;;116904;1196;25078;-41
2022/04/13 09:02:12;;;;;;;;;12.50;9.50;;;25.85;98252.99;;;;117056;1197;25147;-36
2022/04/13 09:04:43;;;;;;;;;12.00;10.33;;;25.96;98251.67;;;;116444;1199;25536;-40
2022/04/13 09:07:13;;;;;;;;;15.50;10.00;;;25.95;98246.59;;;;117312;1198;24756;-36
2022/04/13 09:09:47;;;;;;;;;10.00;9.50;;;26.07;98245.64;;;;116879;1197;25414;-36
2022/04/13 09:12:19;;;;;;;;;20.25;11.75;;;25.97;98240.05;;;;116752;1198;25336;-38
2022/04/13 09:14:49;;;;;;;;;13.00;11.00;;;25.93;98233.69;;;;117331;1197;24786;-41
2022/04/13 09:17:17;;;;;;;;;14.67;12.00;;;26.00;98231.53;;;;116741;1197;25029;-37
2022/04/13 09:19:47;;;;;;;;;17.00;9.00;;;25.86;98227.79;;;;116788;1197;25179;-38
2022/04/13 09:22:18;;;;;;;;;11.00;10.50;;;25.76;98227.22;;;;116771;1198;24892;-42
2022/04/13 09:24:53;;;;;;;;;11.00;9.00;;;25.70;98222.85;;;;116790;1196;24777;-38
2022/04/13 09:27:26;;;;;;;;;11.50;11.50;;;25.68;98217.05;;;;116480;1198;26310;-40
2022/04/13 09:29:57;;;;;;;;;11.50;11.50;;;25.63;98215.71;;;;116721;1197;25129;-41
2022/04/13 09:32:27;;;;;;;;;17.00;11.00;;;25.57;98209.35;;;;116746;1198;25443;-43
2022/04/13 09:35:08;;;;;;;;;16.00;14.50;;;25.57;98208.10;;;;116748;1197;25229;-42
2022/04/13 09:37:36;;;;;;;;;17.00;14.00;;;25.61;98207.11;;;;116839;1198;24779;-35
2022/04/13 09:40:08;;;;;;;;;13.00;13.00;;;25.57;98202.60;;;;116836;1196;25284;-43
2022/04/13 09:42:42;;;;;;;;;19.33;16.00;;;25.61;98199.30;;;;116786;1197;25461;-40
2022/04/13 09:45:28;;;;;;;;;15.00;14.00;;;25.61;98194.55;;;;116715;1197;25596;-39
2022/04/13 09:48:08;;;;;;;;;15.67;13.67;;;25.62;98194.23;;;;116756;1196;24726;-38
2022/04/13 09:50:41;;;;;;;;;11.67;10.67;;;25.60;98189.44;;;;116773;1197;24989;-39
2022/04/13 09:53:13;;;;;;;;;16.50;13.50;;;25.57;98184.23;;;;116687;1196;24917;-36
2022/04/13 09:55:53;;;;;;;;;16.50;14.50;;;25.63;98181.27;;;;116633;1197;25127;-37
2022/04/13 09:58:26;;;;;;;;;14.00;14.00;;;25.69;98179.10;;;;116586;1196;24810;-37
2022/04/13 10:01:14;;;;;;;;;15.50;13.25;;;25.71;98178.48;;;;116610;1197;25339;-38
2022/04/13 10:03:56;;;;;;;;;15.00;14.00;;;25.90;98171.24;;;;118082;1198;24926;-41
2022/04/13 10:06:48;;;;;;;;;16.00;14.50;;;26.37;98166.77;;;;116790;1197;25534;-41
2022/04/13 10:09:40;;;;;;;;;14.67;13.00;;;26.39;98158.27;;;;116461;1197;25516;-41
2022/04/13 10:12:14;;;;;;;;;12.00;12.00;;;26.37;98161.48;;;;116741;1196;25568;-37
2022/04/13 10:14:44;;;;;;;;;14.75;14.75;;;26.29;98157.24;;;;116779;1197;25317;-38
2022/04/13 10:17:35;;;;;;;;;11.67;11.00;;;26.23;98157.52;;;;116778;1198;24783;-37
2022/04/13 10:20:09;;;;;;;;;11.00;11.00;;;26.29;98154.64;;;;116727;1197;25545;-36
2022/04/13 10:23:01;;;;;;;;;13.00;12.00;;;26.28;98158.21;;;;116740;1197;25032;-39
2022/04/13 10:25:34;;;;;;;;;12.00;11.33;;;26.26;98164.70;;;;116784;1197;25375;-39
2022/04/13 10:28:21;;;;;;;;;8.75;8.50;;;26.20;98161.25;;;;116609;1196;24908;-40
2022/04/13 10:30:51;;;;;;;;;9.67;9.67;;;26.23;98159.05;;;;116727;1198;25046;-40
2022/04/13 10:33:47;;;;;;;;;9.75;9.75;;;26.21;98156.43;;;;116449;1198;24861;-39
2022/04/13 10:36:21;;;;;;;;;10.00;8.00;;;26.25;98156.56;;;;116691;1196;26447;-38
2022/04/13 10:38:54;;;;;;;;;12.33;12.00;;;26.25;98151.82;;;;116732;1196;24862;-38
2022/04/13 10:41:23;;;;;;;;;17.00;12.00;;;26.24;98151.07;;;;116866;1197;25647;-37
2022/04/13 10:43:57;;;;;;;;;13.25;9.50;;;26.27;98149.98;;;;116862;1196;25720;-37
2022/04/13 10:46:30;;;;;;;;;8.33;8.33;;;26.28;98147.59;;;;116762;1197;25072;-37
2022/04/13 10:49:09;;;;;;;;;13.00;11.33;;;26.23;98146.80;;;;116742;1197;25551;-37
2022/04/13 10:51:40;;;;;;;;;11.00;10.25;;;26.26;98150.16;;;;116756;1197;24879;-37
2022/04/13 10:54:12;;;;;;;;;11.67;11.00;;;26.28;98146.11;;;;116769;1196;24827;-37
2022/04/13 10:56:44;;;;;;;;;12.00;6.25;;;26.26;98140.67;;;;116740;1198;24680;-36
2022/04/13 10:59:24;;;;;;;;;15.67;11.33;;;26.29;98137.19;;;;116814;1196;25493;-37
2022/04/13 11:02:10;;;;;;;;;13.00;11.00;;;26.36;98138.27;;;;116925;1197;25256;-43
2022/04/13 11:04:46;;;;;;;;;14.33;11.00;;;26.51;98141.42;;;;116778;1197;25529;-42
2022/04/13 11:07:19;;;;;;;;;6.67;5.00;;;26.54;98139.54;;;;116832;1197;25035;-37
2022/04/13 11:10:16;;;;;;;;;7.00;7.00;;;26.59;98138.85;;;;116563;1197;25644;-38
2022/04/13 11:12:51;;;;;;;;;12.00;9.67;;;26.78;98137.81;;;;116611;1196;25755;-41
2022/04/13 11:15:46;;;;;;;;;8.33;8.33;;;26.82;98138.17;;;;116802;1197;25191;-42
2022/04/13 11:18:42;;;;;;;;;8.75;8.00;;;26.92;98135.45;;;;116759;1196;26105;-40
2022/04/13 11:21:14;;;;;;;;;13.50;10.50;;;26.94;98138.70;;;;116839;1197;25503;-39
2022/04/13 11:23:43;;;;;;;;;8.00;8.00;;;26.95;98137.55;;;;116808;1197;24773;-42
2022/04/13 11:26:10;;;;;;;;;10.25;9.25;;;26.95;98133.73;;;;116796;1196;25312;-38
2022/04/13 11:29:12;;;;;;;;;12.00;12.00;;;26.97;98126.11;;;;116810;1197;25134;-40
2022/04/13 11:32:00;;;;;;;;;10.50;9.25;;;27.00;98122.05;;;;116757;1197;25573;-39
2022/04/13 11:34:29;;;;;;;;;10.00;8.00;;;26.99;98123.08;;;;116738;1197;25855;-38
2022/04/13 11:37:00;;;;;;;;;11.00;9.50;;;26.98;98120.16;;;;116835;1197;25129;-39
2022/04/13 11:39:56;;;;;;;;;9.67;9.67;;;27.05;98117.31;;;;116824;1197;25681;-38
2022/04/13 11:42:38;;;;;;;;;12.00;9.00;;;27.13;98112.33;;;;116898;1196;25644;-38
2022/04/13 11:45:17;;;;;;;;;11.00;10.00;;;27.20;98116.02;;;;116824;1197;24976;-38
2022/04/13 11:47:53;;;;;;;;;9.25;8.00;;;27.23;98118.53;;;;116802;1196;25243;-38
2022/04/13 11:50:50;;;;;;;;;9.00;8.00;;;27.13;98121.86;;;;116779;1197;25442;-40
2022/04/13 11:53:29;;;;;;;;;9.75;7.50;;;27.10;98113.91;;;;116823;1196;25392;-39
2022/04/13 11:56:00;;;;;;;;;7.00;6.67;;;26.88;98111.81;;;;116756;1197;25736;-39
2022/04/13 11:58:35;;;;;;;;;9.00;8.50;;;26.66;98111.45;;;;116800;1197;25102;-47
2022/04/13 12:01:13;;;;;;;;;7.75;7.75;;;26.51;98107.86;;;;117210;1198;25190;-38
2022/04/13 12:03:44;;;;;;;;;10.00;8.50;;;26.62;98102.35;;;;117262;1196;25745;-39
2022/04/13 12:06:15;;;;;;;;;14.00;9.75;;;26.60;98103.33;;;;118481;1197;26318;-40
2022/04/13 12:08:47;;;;;;;;;12.00;8.50;;;26.98;98097.40;;;;117812;1197;25385;-40
2022/04/13 12:11:38;;;;;;;;;10.33;10.00;;;27.19;98094.95;;;;116811;1195;25055;-42
2022/04/13 12:14:13;;;;;;;;;13.75;9.75;;;27.01;98093.10;;;;116787;1197;25158;-40
2022/04/13 12:16:44;;;;;;;;;11.50;9.00;;;26.89;98091.25;;;;116834;1197;25340;-47
2022/04/13 12:19:17;;;;;;;;;11.00;10.25;;;26.83;98087.53;;;;116864;1197;25360;-41
2022/04/13 12:22:16;;;;;;;;;12.67;9.33;;;26.82;98091.30;;;;116775;1197;24954;-41
2022/04/13 12:25:17;;;;;;;;;19.25;10.75;;;26.76;98088.00;;;;116756;1196;25056;-41
2022/04/13 12:28:04;;;;;;;;;12.67;9.00;;;26.81;98086.41;;;;116870;1197;25216;-39
2022/04/13 12:30:43;;;;;;;;;12.00;11.25;;;26.90;98090.02;;;;116877;1197;26137;-41
2022/04/13 12:33:37;;;;;;;;;19.00;14.00;;;26.87;98089.07;;;;116731;1196;25293;-45